createdAt,value
2022-10-06T00:01:10.631Z,101917.78
2022-10-06T00:03:38.290Z,101920.38
2022-10-06T00:06:05.855Z,101921.34
2022-10-06T00:08:34.715Z,101913.97
2022-10-06T00:11:01.623Z,101912.91
2022-10-06T00:13:28.629Z,101918.34
2022-10-06T00:15:55.512Z,101916.66
2022-10-06T00:18:22.239Z,101928.22
2022-10-06T00:20:59.902Z,101921.34
2022-10-06T00:23:27.509Z,101921.59
2022-10-06T00:25:54.486Z,101924.06
2022-10-06T00:28:21.628Z,101916.78
2022-10-06T00:30:48.270Z,101918.34
2022-10-06T00:33:17.328Z,101914.19
2022-10-06T00:35:44.343Z,101925.31
2022-10-06T00:38:13.026Z,101920.78
2022-10-06T00:40:48.439Z,101917.25
2022-10-06T00:43:36.730Z,101915.69
2022-10-06T00:46:03.249Z,101922.81
2022-10-06T00:48:31.222Z,101911.22
2022-10-06T00:50:59.209Z,101906.66
2022-10-06T00:53:30.330Z,101917.72
2022-10-06T00:55:57.276Z,101911.69
2022-10-06T00:58:24.096Z,101915.72
2022-10-06T01:00:55.599Z,101915.09
2022-10-06T01:03:29.729Z,101918.72
2022-10-06T01:05:57.980Z,101914.66
2022-10-06T01:08:25.948Z,101918.81
2022-10-06T01:10:52.660Z,101920.28
2022-10-06T01:13:19.387Z,101919.94
2022-10-06T01:16:06.216Z,101912.88
2022-10-06T01:18:33.852Z,101910.91
2022-10-06T01:21:29.334Z,101906.97
2022-10-06T01:23:57.140Z,101913.56
2022-10-06T01:26:24.897Z,101912.25
2022-10-06T01:28:51.661Z,101907.72
2022-10-06T01:31:18.479Z,101900.06
2022-10-06T01:33:44.957Z,101900.06
2022-10-06T01:36:11.352Z,101904.19
2022-10-06T01:38:37.856Z,101901.09
2022-10-06T01:41:04.708Z,101895.34
2022-10-06T01:43:31.129Z,101893.81
2022-10-06T01:45:58.380Z,101894.38
2022-10-06T01:48:26.694Z,101895.38
2022-10-06T01:50:54.641Z,101891.34
2022-10-06T01:53:21.520Z,101892.53
2022-10-06T01:55:48.497Z,101895.13
2022-10-06T01:58:15.077Z,101902.84
2022-10-06T02:00:41.552Z,101894.13
2022-10-06T02:03:08.453Z,101889.19
2022-10-06T02:05:35.139Z,101894.94
2022-10-06T02:08:02.712Z,101892.13
2022-10-06T02:10:29.243Z,101884.84
2022-10-06T02:12:55.717Z,101891.53
2022-10-06T02:15:22.252Z,101885.94
2022-10-06T02:17:48.815Z,101881.78
2022-10-06T02:20:15.642Z,101891.09
2022-10-06T02:22:43.651Z,101888.09
2022-10-06T02:25:11.839Z,101884.75
2022-10-06T02:27:39.584Z,101887.56
2022-10-06T02:30:07.452Z,101885.97
2022-10-06T02:32:36.817Z,101886.78
2022-10-06T02:35:04.097Z,101881.53
2022-10-06T02:37:30.952Z,101885.06
2022-10-06T02:39:57.518Z,101889.56
2022-10-06T02:42:24.090Z,101881.91
2022-10-06T02:44:52.173Z,101881.69
2022-10-06T02:47:19.454Z,101876.03
2022-10-06T02:49:46.401Z,101881.00
2022-10-06T02:52:13.023Z,101883.59
2022-10-06T02:54:39.457Z,101884.91
2022-10-06T02:57:05.913Z,101885.53
2022-10-06T02:59:33.905Z,101882.44
2022-10-06T03:02:00.455Z,101889.47
2022-10-06T03:04:27.442Z,101885.88
2022-10-06T03:06:53.978Z,101888.97
2022-10-06T03:09:20.432Z,101888.88
2022-10-06T03:11:47.156Z,101887.63
2022-10-06T03:14:16.582Z,101885.25
2022-10-06T03:16:45.746Z,101887.25
2022-10-06T03:19:12.294Z,101896.91
2022-10-06T03:21:43.781Z,101886.34
2022-10-06T03:24:10.946Z,101883.94
2022-10-06T03:26:40.781Z,101890.22
2022-10-06T03:29:11.331Z,101890.50
2022-10-06T03:31:39.162Z,101893.91
2022-10-06T03:34:06.024Z,101896.56
2022-10-06T03:36:33.902Z,101902.03
2022-10-06T03:39:01.631Z,101907.91
2022-10-06T03:41:30.401Z,101899.25
2022-10-06T03:43:58.625Z,101904.59
2022-10-06T03:46:30.071Z,101900.94
2022-10-06T03:49:01.258Z,101903.84
2022-10-06T03:51:31.640Z,101900.75
2022-10-06T03:53:58.961Z,101900.59
2022-10-06T03:56:29.559Z,101907.00
2022-10-06T03:58:59.652Z,101902.34
2022-10-06T04:01:32.126Z,101903.53
2022-10-06T04:04:00.445Z,101900.03
2022-10-06T04:06:28.823Z,101898.03
2022-10-06T04:08:55.884Z,101902.38
2022-10-06T04:11:33.490Z,101901.16
2022-10-06T04:14:02.752Z,101905.19
2022-10-06T04:16:34.268Z,101904.91
2022-10-06T04:19:03.716Z,101909.50
2022-10-06T04:21:32.227Z,101908.28
2022-10-06T04:24:00.327Z,101920.56
2022-10-06T04:26:30.654Z,101914.34
2022-10-06T04:28:57.478Z,101920.19
2022-10-06T04:31:26.531Z,101925.69
2022-10-06T04:33:55.285Z,101924.84
2022-10-06T04:36:27.997Z,101924.41
2022-10-06T04:38:58.175Z,101929.44
2022-10-06T04:41:31.821Z,101932.94
2022-10-06T04:43:58.736Z,101937.38
2022-10-06T04:49:19.674Z,101935.09
2022-10-06T04:51:48.885Z,101941.94
2022-10-06T04:54:15.527Z,101942.41
2022-10-06T04:56:41.909Z,101945.16
2022-10-06T04:59:08.346Z,101938.28
2022-10-06T05:01:36.724Z,101938.31
2022-10-06T05:04:05.886Z,101935.91
2022-10-06T05:06:41.575Z,101942.88
2022-10-06T05:09:13.677Z,101940.53
2022-10-06T05:11:40.482Z,101949.25
2022-10-06T05:14:07.527Z,101950.69
2022-10-06T05:16:36.869Z,101946.59
2022-10-06T05:19:03.604Z,101949.78
2022-10-06T05:21:32.163Z,101946.72
2022-10-06T05:23:59.046Z,101947.66
2022-10-06T05:26:28.539Z,101951.03
2022-10-06T05:28:55.202Z,101948.28
2022-10-06T05:31:27.783Z,101947.84
2022-10-06T05:33:55.326Z,101947.88
2022-10-06T05:36:27.933Z,101946.34
2022-10-06T05:38:59.665Z,101951.03
2022-10-06T05:41:37.644Z,101956.84
2022-10-06T05:44:04.633Z,101952.84
2022-10-06T05:46:36.182Z,101962.63
2022-10-06T05:49:17.049Z,101962.63
2022-10-06T05:51:43.740Z,101963.19
2022-10-06T05:54:10.292Z,101969.31
2022-10-06T05:56:38.138Z,101966.09
2022-10-06T05:59:05.846Z,101969.59
2022-10-06T06:01:33.172Z,101974.16
2022-10-06T06:04:03.011Z,101968.13
2022-10-06T06:06:48.795Z,101970.53
2022-10-06T06:09:17.462Z,101973.88
2022-10-06T06:11:46.850Z,101979.00
2022-10-06T06:14:44.081Z,101967.69
2022-10-06T06:17:11.473Z,101972.84
2022-10-06T06:19:37.875Z,101976.66
2022-10-06T06:22:04.268Z,101980.22
2022-10-06T06:24:30.717Z,101979.72
2022-10-06T06:26:57.209Z,101985.84
2022-10-06T06:29:24.054Z,102001.03
2022-10-06T06:31:51.045Z,102001.97
2022-10-06T06:34:17.580Z,102008.88
2022-10-06T06:36:46.944Z,102005.34
2022-10-06T06:39:14.525Z,102006.59
2022-10-06T06:41:46.023Z,102013.84
2022-10-06T06:44:13.835Z,102019.44
2022-10-06T06:46:43.253Z,102026.72
2022-10-06T06:49:11.908Z,102028.94
2022-10-06T06:51:40.835Z,102028.03
2022-10-06T06:54:09.091Z,102033.53
2022-10-06T06:56:36.140Z,102031.09
2022-10-06T06:59:08.813Z,102033.16
2022-10-06T07:01:35.315Z,102036.59
2022-10-06T07:04:01.930Z,102036.28
2022-10-06T07:06:30.435Z,102052.84
2022-10-06T07:08:58.770Z,102048.06
2022-10-06T07:11:32.334Z,102042.53
2022-10-06T07:14:03.739Z,102049.84
2022-10-06T07:16:50.031Z,102057.44
2022-10-06T07:19:36.760Z,102063.03
2022-10-06T07:22:34.825Z,102056.97
2022-10-06T07:25:11.500Z,102057.53
2022-10-06T07:27:42.383Z,102058.38
2022-10-06T07:30:11.760Z,102069.53
2022-10-06T07:32:38.298Z,102069.25
2022-10-06T07:35:06.488Z,102067.09
2022-10-06T07:37:35.110Z,102074.28
2022-10-06T07:40:01.968Z,102078.19
2022-10-06T07:42:28.503Z,102074.06
2022-10-06T07:45:13.393Z,102072.59
2022-10-06T07:47:39.924Z,102075.88
2022-10-06T07:50:08.336Z,102070.88
2022-10-06T07:52:39.082Z,102069.31
2022-10-06T07:55:06.428Z,102068.19
2022-10-06T07:57:35.432Z,102077.56
2022-10-06T08:00:05.612Z,102073.94
2022-10-06T08:02:35.521Z,102072.03
2022-10-06T08:05:03.494Z,102076.69
2022-10-06T08:07:29.889Z,102079.19
2022-10-06T08:09:56.280Z,102085.84
2022-10-06T08:12:37.359Z,102082.09
2022-10-06T08:15:07.895Z,102082.22
2022-10-06T08:17:36.723Z,102089.16
2022-10-06T08:20:08.914Z,102084.13
2022-10-06T08:22:36.606Z,102088.91
2022-10-06T08:25:07.288Z,102079.94
2022-10-06T08:27:35.260Z,102089.81
2022-10-06T08:30:02.563Z,102089.56
2022-10-06T08:32:29.978Z,102092.00
2022-10-06T08:34:57.016Z,102093.81
2022-10-06T08:37:24.499Z,102096.00
2022-10-06T08:39:51.492Z,102098.69
2022-10-06T08:42:26.042Z,102097.22
2022-10-06T08:45:15.289Z,102095.38
2022-10-06T08:47:52.235Z,102092.47
2022-10-06T08:50:21.269Z,102101.28
2022-10-06T08:53:17.602Z,102088.50
2022-10-06T08:55:57.320Z,102093.28
2022-10-06T08:58:28.875Z,102095.16
2022-10-06T09:01:00.885Z,102088.38
2022-10-06T09:03:29.653Z,102093.16
2022-10-06T09:06:07.416Z,102092.34
2022-10-06T09:08:55.344Z,102093.09
2022-10-06T09:11:43.395Z,102096.44
2022-10-06T09:14:24.406Z,102094.28
2022-10-06T09:16:58.136Z,102092.94
2022-10-06T09:19:37.454Z,102097.72
2022-10-06T09:24:57.216Z,102093.19
2022-10-06T09:27:30.381Z,102094.91
2022-10-06T09:29:57.110Z,102094.94
2022-10-06T09:32:26.655Z,102092.66
2022-10-06T09:34:55.944Z,102095.28
2022-10-06T09:37:23.209Z,102096.78
2022-10-06T09:39:51.676Z,102090.31
2022-10-06T09:42:30.037Z,102095.53
2022-10-06T09:45:29.023Z,102094.66
2022-10-06T09:48:11.770Z,102105.97
2022-10-06T09:50:38.267Z,102097.81
2022-10-06T09:53:16.264Z,102100.97
2022-10-06T09:55:46.599Z,102101.53
2022-10-06T09:58:21.282Z,102098.31
2022-10-06T10:00:53.664Z,102094.44
2022-10-06T10:03:21.630Z,102093.19
2022-10-06T10:05:54.826Z,102088.66
2022-10-06T10:08:24.483Z,102089.34
2022-10-06T10:11:30.258Z,102087.63
2022-10-06T10:13:57.847Z,102083.84
2022-10-06T10:16:26.414Z,102084.47
2022-10-06T10:18:53.505Z,102082.34
2022-10-06T10:21:25.800Z,102084.03
2022-10-06T10:23:58.484Z,102080.38
2022-10-06T10:26:32.469Z,102082.88
2022-10-06T10:29:04.955Z,102081.19
2022-10-06T10:31:50.178Z,102078.28
2022-10-06T10:34:34.589Z,102081.19
2022-10-06T10:37:05.738Z,102076.41
2022-10-06T10:39:49.567Z,102080.66
2022-10-06T10:42:31.075Z,102073.63
2022-10-06T10:45:02.714Z,102073.41
2022-10-06T10:47:37.806Z,102064.13
2022-10-06T10:50:24.548Z,102062.22
2022-10-06T10:52:54.628Z,102063.56
2022-10-06T10:55:31.490Z,102061.06
2022-10-06T10:58:05.886Z,102053.09
2022-10-06T11:00:37.492Z,102054.22
2022-10-06T11:03:04.065Z,102056.34
2022-10-06T11:05:55.097Z,102059.00
2022-10-06T11:08:45.906Z,102052.16
2022-10-06T11:11:41.409Z,102053.56
2022-10-06T11:14:19.261Z,102049.25
2022-10-06T11:17:03.678Z,102046.03
2022-10-06T11:19:54.981Z,102042.63
2022-10-06T11:22:31.980Z,102038.50
2022-10-06T11:25:20.092Z,102033.34
2022-10-06T11:28:14.591Z,102029.50
2022-10-06T11:30:58.565Z,102031.59
2022-10-06T11:33:52.695Z,102032.28
2022-10-06T11:36:42.101Z,102029.66
2022-10-06T11:39:20.841Z,102027.66
2022-10-06T11:42:06.107Z,102023.88
2022-10-06T11:44:46.417Z,102025.81
2022-10-06T11:47:35.543Z,102019.47
2022-10-06T11:50:12.404Z,102009.16
2022-10-06T11:52:46.386Z,102008.16
2022-10-06T11:55:16.529Z,102014.72
2022-10-06T11:58:29.762Z,102017.78
2022-10-06T12:00:56.288Z,102006.28
2022-10-06T12:03:28.471Z,102005.06
2022-10-06T12:05:56.517Z,102003.44
2022-10-06T12:08:40.155Z,101998.47
2022-10-06T12:11:38.200Z,101996.56
2022-10-06T12:17:22.503Z,101991.63
2022-10-06T12:20:16.765Z,101987.72
2022-10-06T12:22:55.803Z,101978.69
2022-10-06T12:25:32.035Z,101976.38
2022-10-06T12:28:19.695Z,101968.91
2022-10-06T12:31:17.965Z,101970.78
2022-10-06T12:33:45.251Z,101973.31
2022-10-06T12:36:19.161Z,101972.97
2022-10-06T12:39:01.724Z,101957.97
2022-10-06T12:41:59.214Z,101953.63
2022-10-06T12:44:37.940Z,101954.63
2022-10-06T12:47:12.939Z,101948.38
2022-10-06T12:50:03.019Z,101949.19
2022-10-06T12:52:35.492Z,101948.03
2022-10-06T12:55:35.869Z,101955.06
2022-10-06T12:58:02.463Z,101947.47
2022-10-06T13:00:31.887Z,101946.94
2022-10-06T13:03:01.013Z,101953.66
2022-10-06T13:05:27.885Z,101948.28
2022-10-06T13:07:55.856Z,101944.75
2022-10-06T13:10:23.414Z,101950.09
2022-10-06T13:12:52.102Z,101951.34
2022-10-06T13:15:27.739Z,101941.13
2022-10-06T13:17:56.108Z,101939.09
2022-10-06T13:20:46.281Z,101937.88
2022-10-06T13:23:37.150Z,101942.50
2022-10-06T13:26:05.062Z,101937.16
2022-10-06T13:28:47.297Z,101935.06
2022-10-06T13:31:29.259Z,101933.81
2022-10-06T13:34:05.167Z,101935.91
2022-10-06T13:36:38.538Z,101933.91
2022-10-06T13:39:06.416Z,101932.53
2022-10-06T13:41:41.461Z,101938.06
2022-10-06T13:44:18.709Z,101929.41
2022-10-06T13:47:01.679Z,101933.38
2022-10-06T13:49:43.058Z,101933.56
2022-10-06T13:52:48.860Z,101933.91
2022-10-06T13:55:25.030Z,101925.78
2022-10-06T13:58:09.241Z,101925.94
2022-10-06T14:01:00.462Z,101927.47
2022-10-06T14:06:16.883Z,101930.56
2022-10-06T14:08:50.767Z,101930.47
2022-10-06T14:11:24.550Z,101925.03
2022-10-06T14:14:03.197Z,101924.16
2022-10-06T14:16:30.104Z,101926.31
2022-10-06T14:19:00.544Z,101931.94
2022-10-06T14:21:36.795Z,101935.28
2022-10-06T14:24:23.251Z,101929.94
2022-10-06T14:26:50.547Z,101924.16
2022-10-06T14:29:18.337Z,101930.41
2022-10-06T14:31:45.417Z,101929.47
2022-10-06T14:34:16.829Z,101925.41
2022-10-06T14:36:45.616Z,101921.78
2022-10-06T14:39:14.824Z,101920.88
2022-10-06T14:41:41.421Z,101922.69
2022-10-06T14:44:12.432Z,101919.97
2022-10-06T14:46:41.404Z,101922.84
2022-10-06T14:49:10.284Z,101919.34
2022-10-06T14:51:38.785Z,101919.97
2022-10-06T14:54:07.296Z,101917.28
2022-10-06T14:56:37.646Z,101919.06
2022-10-06T14:59:06.496Z,101921.78
2022-10-06T15:01:34.949Z,101927.78
2022-10-06T15:04:05.088Z,101920.63
2022-10-06T15:06:50.548Z,101924.31
2022-10-06T15:09:17.136Z,101923.03
2022-10-06T15:11:43.607Z,101928.84
2022-10-06T15:14:10.034Z,101927.13
2022-10-06T15:16:40.598Z,101930.84
2022-10-06T15:19:07.375Z,101919.34
2022-10-06T15:21:34.181Z,101933.38
2022-10-06T15:24:04.463Z,101932.47
2022-10-06T15:26:50.177Z,101935.00
2022-10-06T15:29:16.995Z,101933.91
2022-10-06T15:31:45.896Z,101938.25
2022-10-06T15:34:14.048Z,101933.91
2022-10-06T15:36:42.414Z,101933.63
2022-10-06T15:39:11.166Z,101939.53
2022-10-06T15:41:39.352Z,101937.59
2022-10-06T15:44:07.310Z,101940.94
2022-10-06T15:46:37.107Z,101935.69
2022-10-06T15:49:05.265Z,101939.94
2022-10-06T15:51:36.457Z,101938.03
2022-10-06T15:54:02.904Z,101941.31
2022-10-06T15:56:31.716Z,101945.28
2022-10-06T15:58:59.257Z,101940.09
2022-10-06T16:01:28.419Z,101938.09
2022-10-06T16:03:54.992Z,101948.09
2022-10-06T16:06:30.195Z,101945.91
2022-10-06T16:08:56.598Z,101945.75
2022-10-06T16:11:23.049Z,101947.25
2022-10-06T16:13:49.527Z,101943.47
2022-10-06T16:16:15.980Z,101943.16
2022-10-06T16:18:42.433Z,101947.13
2022-10-06T16:21:08.841Z,101947.63
2022-10-06T16:23:35.213Z,101949.97
2022-10-06T16:26:02.234Z,101948.88
2022-10-06T16:28:28.668Z,101955.25
2022-10-06T16:30:55.423Z,101958.19
2022-10-06T16:33:21.866Z,101963.03
2022-10-06T16:35:55.880Z,101965.00
2022-10-06T16:38:23.072Z,101966.13
2022-10-06T16:41:03.286Z,101969.16
2022-10-06T16:43:31.941Z,101972.28
2022-10-06T16:46:02.301Z,101971.97
2022-10-06T16:48:34.761Z,101969.94
2022-10-06T16:51:34.623Z,101976.59
2022-10-06T16:54:03.441Z,101982.22
2022-10-06T16:56:42.050Z,101986.25
2022-10-06T16:59:19.038Z,101982.41
2022-10-06T17:01:46.264Z,101980.19
2022-10-06T17:04:15.450Z,101975.53
2022-10-06T17:06:45.194Z,101983.78
2022-10-06T17:09:14.339Z,101987.78
2022-10-06T17:11:48.462Z,101995.41
2022-10-06T17:14:15.731Z,101997.78
2022-10-06T17:16:43.934Z,102002.81
2022-10-06T17:19:15.481Z,102009.44
2022-10-06T17:21:48.101Z,102009.00
2022-10-06T17:24:20.022Z,102008.56
2022-10-06T17:26:48.478Z,102012.59
2022-10-06T17:29:21.223Z,102020.44
2022-10-06T17:31:49.273Z,102017.63
2022-10-06T17:34:20.862Z,102018.06
2022-10-06T17:36:50.850Z,102024.81
2022-10-06T17:39:22.545Z,102031.41
2022-10-06T17:41:51.791Z,102028.38
2022-10-06T17:44:23.525Z,102032.25
2022-10-06T17:46:52.815Z,102031.91
2022-10-06T17:49:21.234Z,102036.00
2022-10-06T17:51:49.107Z,102036.59
2022-10-06T17:54:19.140Z,102038.06
2022-10-06T17:56:47.896Z,102036.84
2022-10-06T17:59:36.048Z,102041.72
2022-10-06T18:02:03.598Z,102037.94
2022-10-06T18:04:31.483Z,102034.97
2022-10-06T18:06:58.091Z,102039.75
2022-10-06T18:09:25.189Z,102043.19
2022-10-06T18:11:56.413Z,102041.25
2022-10-06T18:14:26.245Z,102038.97
2022-10-06T18:16:58.386Z,102040.56
2022-10-06T18:19:30.707Z,102048.16
2022-10-06T18:22:12.746Z,102044.44
2022-10-06T18:24:40.072Z,102058.25
2022-10-06T18:27:07.824Z,102050.69
2022-10-06T18:29:38.027Z,102048.50
2022-10-06T18:37:38.998Z,102054.19
2022-10-06T18:40:08.518Z,102062.78
2022-10-06T18:42:34.997Z,102057.91
2022-10-06T18:45:19.762Z,102067.09
2022-10-06T18:48:04.494Z,102067.78
2022-10-06T18:50:32.116Z,102065.03
2022-10-06T18:52:58.518Z,102067.06
2022-10-06T18:55:26.343Z,102067.94
2022-10-06T18:57:52.832Z,102061.78
2022-10-06T19:00:19.212Z,102068.47
2022-10-06T19:02:48.433Z,102069.00
2022-10-06T19:05:16.013Z,102068.09
2022-10-06T19:07:43.378Z,102068.22
2022-10-06T19:10:10.276Z,102070.94
2022-10-06T19:12:36.670Z,102075.13
2022-10-06T19:15:03.417Z,102074.09
2022-10-06T19:17:29.845Z,102084.84
2022-10-06T19:19:56.982Z,102081.19
2022-10-06T19:22:25.013Z,102083.44
2022-10-06T19:24:52.162Z,102095.22
2022-10-06T19:27:23.841Z,102095.00
2022-10-06T19:29:54.259Z,102097.25
2022-10-06T19:32:32.130Z,102100.38
2022-10-06T19:34:59.176Z,102105.59
2022-10-06T19:37:28.319Z,102106.41
2022-10-06T19:39:54.722Z,102098.94
2022-10-06T19:42:39.768Z,102103.25
2022-10-06T19:45:07.805Z,102108.25
2022-10-06T19:47:34.217Z,102106.00
2022-10-06T19:50:04.702Z,102110.41
2022-10-06T19:52:34.149Z,102106.25
2022-10-06T19:55:00.766Z,102105.47
2022-10-06T19:57:29.093Z,102110.19
2022-10-06T19:59:55.555Z,102106.00
2022-10-06T20:02:22.263Z,102107.28
2022-10-06T20:04:48.759Z,102107.13
2022-10-06T20:07:15.190Z,102105.88
2022-10-06T20:09:41.697Z,102110.56
2022-10-06T20:12:08.117Z,102108.16
2022-10-06T20:14:34.631Z,102113.00
2022-10-06T20:17:02.639Z,102105.81
2022-10-06T20:19:29.171Z,102107.91
2022-10-06T20:21:55.631Z,102114.69
2022-10-06T20:24:24.581Z,102119.66
2022-10-06T20:26:52.755Z,102127.09
2022-10-06T20:29:25.282Z,102122.13
2022-10-06T20:31:56.282Z,102121.59
2022-10-06T20:34:23.865Z,102124.16
2022-10-06T20:36:55.732Z,102127.75
2022-10-06T20:39:42.174Z,102129.34
2022-10-06T20:42:13.963Z,102129.88
2022-10-06T20:44:42.215Z,102132.47
2022-10-06T20:47:10.246Z,102126.75
2022-10-06T20:49:37.114Z,102129.88
2022-10-06T20:52:04.712Z,102131.69
2022-10-06T20:54:34.712Z,102132.47
2022-10-06T20:57:03.825Z,102128.41
2022-10-06T20:59:31.310Z,102124.00
2022-10-06T21:01:59.876Z,102125.72
2022-10-06T21:04:29.907Z,102123.09
2022-10-06T21:06:56.991Z,102123.13
2022-10-06T21:09:24.350Z,102123.91
2022-10-06T21:11:51.239Z,102119.47
2022-10-06T21:14:18.164Z,102129.63
2022-10-06T21:16:47.480Z,102127.03
2022-10-06T21:19:16.668Z,102131.19
2022-10-06T21:21:45.815Z,102122.84
2022-10-06T21:24:12.266Z,102125.22
2022-10-06T21:26:39.064Z,102133.16
2022-10-06T21:29:05.669Z,102127.56
2022-10-06T21:31:33.038Z,102124.28
2022-10-06T21:34:01.189Z,102115.00
2022-10-06T21:36:30.930Z,102116.41
2022-10-06T21:38:59.096Z,102111.47
2022-10-06T21:41:31.810Z,102106.38
2022-10-06T21:44:00.154Z,102106.41
2022-10-06T21:46:29.437Z,102099.56
2022-10-06T21:48:57.930Z,102106.47
2022-10-06T21:51:26.595Z,102102.31
2022-10-06T21:53:54.223Z,102099.41
2022-10-06T21:56:22.037Z,102097.97
2022-10-06T21:58:52.985Z,102095.00
2022-10-06T22:01:21.789Z,102102.81
2022-10-06T22:03:48.785Z,102103.38
2022-10-06T22:06:19.306Z,102102.78
2022-10-06T22:08:46.479Z,102094.59
2022-10-06T22:11:19.023Z,102095.38
2022-10-06T22:13:47.937Z,102094.19
2022-10-06T22:16:21.486Z,102098.31
2022-10-06T22:18:48.624Z,102098.22
2022-10-06T22:21:21.407Z,102095.22
2022-10-06T22:23:54.315Z,102096.38
2022-10-06T22:26:20.806Z,102093.88
2022-10-06T22:28:49.187Z,102092.63
2022-10-06T22:31:17.397Z,102095.22
2022-10-06T22:33:49.635Z,102091.84
2022-10-06T22:36:16.042Z,102096.63
2022-10-06T22:38:42.441Z,102089.75
2022-10-06T22:41:11.203Z,102091.03
2022-10-06T22:43:38.462Z,102087.00
2022-10-06T22:46:06.644Z,102088.69
2022-10-06T22:48:33.299Z,102081.94
2022-10-06T22:51:00.048Z,102086.34
2022-10-06T22:53:29.999Z,102080.50
2022-10-06T22:55:56.834Z,102078.84
2022-10-06T22:58:23.566Z,102076.19
2022-10-06T23:00:50.293Z,102073.59
2022-10-06T23:03:18.329Z,102072.50
2022-10-06T23:05:59.323Z,102072.63
2022-10-06T23:08:30.164Z,102067.53
2022-10-06T23:11:11.615Z,102064.19
2022-10-06T23:13:38.075Z,102071.72
2022-10-06T23:16:07.986Z,102069.78
2022-10-06T23:18:37.273Z,102070.44
2022-10-06T23:21:18.990Z,102069.13
2022-10-06T23:23:46.180Z,102068.75
2022-10-06T23:26:14.619Z,102064.75
2022-10-06T23:28:41.995Z,102063.94
2022-10-06T23:31:10.679Z,102061.84
2022-10-06T23:33:37.223Z,102058.19
2022-10-06T23:36:06.547Z,102059.59
2022-10-06T23:38:34.289Z,102057.38
2022-10-06T23:41:00.869Z,102060.06
2022-10-06T23:43:27.367Z,102055.13
2022-10-06T23:45:53.951Z,102054.78
2022-10-06T23:48:20.428Z,102056.16
2022-10-06T23:51:01.036Z,102055.13
2022-10-06T23:53:28.274Z,102059.59
2022-10-06T23:55:54.798Z,102061.91
2022-10-06T23:58:22.498Z,102059.03
